sensor_id;sensor_type;location;lat;lon;timestamp;P1;durP1;ratioP1;P2;durP2;ratioP2
20814;SDS011;10568;48.176;16.316;2023-08-06T00:00:10;0.10;;;0.10;;
20814;SDS011;10568;48.176;16.316;2023-08-06T00:02:36;0.00;;;0.00;;
20814;SDS011;10568;48.176;16.316;2023-08-06T00:05:01;0.63;;;0.10;;
20814;SDS011;10568;48.176;16.316;2023-08-06T00:07:28;0.20;;;0.10;;
20814;SDS011;10568;48.176;16.316;2023-08-06T00:09:53;1.50;;;0.20;;
20814;SDS011;10568;48.176;16.316;2023-08-06T00:12:19;0.10;;;0.10;;
20814;SDS011;10568;48.176;16.316;2023-08-06T00:14:45;1.30;;;0.20;;
20814;SDS011;10568;48.176;16.316;2023-08-06T00:17:14;0.10;;;0.10;;
20814;SDS011;10568;48.176;16.316;2023-08-06T00:19:40;0.10;;;0.10;;
20814;SDS011;10568;48.176;16.316;2023-08-06T00:22:05;0.00;;;0.00;;
20814;SDS011;10568;48.176;16.316;2023-08-06T00:24:31;0.10;;;0.10;;
20814;SDS011;10568;48.176;16.316;2023-08-06T00:26:57;0.23;;;0.10;;
20814;SDS011;10568;48.176;16.316;2023-08-06T00:29:23;0.20;;;0.20;;
20814;SDS011;10568;48.176;16.316;2023-08-06T00:31:49;0.17;;;0.17;;
20814;SDS011;10568;48.176;16.316;2023-08-06T00:34:14;0.13;;;0.13;;
20814;SDS011;10568;48.176;16.316;2023-08-06T00:36:40;0.13;;;0.10;;
20814;SDS011;10568;48.176;16.316;2023-08-06T00:39:06;0.00;;;0.00;;
20814;SDS011;10568;48.176;16.316;2023-08-06T00:41:32;0.10;;;0.10;;
20814;SDS011;10568;48.176;16.316;2023-08-06T00:43:58;0.00;;;0.00;;
20814;SDS011;10568;48.176;16.316;2023-08-06T00:46:23;0.93;;;0.10;;
20814;SDS011;10568;48.176;16.316;2023-08-06T00:48:50;0.30;;;0.20;;
20814;SDS011;10568;48.176;16.316;2023-08-06T00:51:16;0.10;;;0.10;;
20814;SDS011;10568;48.176;16.316;2023-08-06T00:53:42;0.10;;;0.10;;
20814;SDS011;10568;48.176;16.316;2023-08-06T00:56:08;0.30;;;0.20;;
20814;SDS011;10568;48.176;16.316;2023-08-06T00:58:34;0.10;;;0.10;;
20814;SDS011;10568;48.176;16.316;2023-08-06T01:01:01;0.10;;;0.10;;
20814;SDS011;10568;48.176;16.316;2023-08-06T01:03:27;0.10;;;0.10;;
20814;SDS011;10568;48.176;16.316;2023-08-06T01:05:53;0.33;;;0.20;;
20814;SDS011;10568;48.176;16.316;2023-08-06T01:13:45;0.20;;;0.20;;
20814;SDS011;10568;48.176;16.316;2023-08-06T01:16:15;0.10;;;0.10;;
20814;SDS011;10568;48.176;16.316;2023-08-06T01:18:42;0.27;;;0.20;;
20814;SDS011;10568;48.176;16.316;2023-08-06T01:21:11;0.10;;;0.10;;
20814;SDS011;10568;48.176;16.316;2023-08-06T01:23:44;1.17;;;0.10;;
20814;SDS011;10568;48.176;16.316;2023-08-06T01:28:52;0.10;;;0.10;;
20814;SDS011;10568;48.176;16.316;2023-08-06T01:31:26;0.10;;;0.10;;
20814;SDS011;10568;48.176;16.316;2023-08-06T01:34:02;0.10;;;0.10;;
20814;SDS011;10568;48.176;16.316;2023-08-06T01:36:31;0.10;;;0.10;;
20814;SDS011;10568;48.176;16.316;2023-08-06T01:38:57;0.63;;;0.10;;
20814;SDS011;10568;48.176;16.316;2023-08-06T01:41:23;0.10;;;0.10;;
20814;SDS011;10568;48.176;16.316;2023-08-06T01:43:49;0.10;;;0.10;;
20814;SDS011;10568;48.176;16.316;2023-08-06T01:46:14;0.20;;;0.20;;
20814;SDS011;10568;48.176;16.316;2023-08-06T01:48:40;0.10;;;0.10;;
20814;SDS011;10568;48.176;16.316;2023-08-06T01:51:06;0.20;;;0.20;;
20814;SDS011;10568;48.176;16.316;2023-08-06T01:53:32;0.20;;;0.17;;
20814;SDS011;10568;48.176;16.316;2023-08-06T01:55:58;0.20;;;0.20;;
20814;SDS011;10568;48.176;16.316;2023-08-06T01:58:23;0.20;;;0.20;;
20814;SDS011;10568;48.176;16.316;2023-08-06T02:00:49;0.57;;;0.37;;
20814;SDS011;10568;48.176;16.316;2023-08-06T02:03:15;0.30;;;0.20;;
20814;SDS011;10568;48.176;16.316;2023-08-06T02:05:41;0.40;;;0.30;;
20814;SDS011;10568;48.176;16.316;2023-08-06T02:08:07;0.30;;;0.30;;
20814;SDS011;10568;48.176;16.316;2023-08-06T02:10:32;0.27;;;0.27;;
20814;SDS011;10568;48.176;16.316;2023-08-06T02:12:58;0.20;;;0.20;;
20814;SDS011;10568;48.176;16.316;2023-08-06T02:15:24;0.30;;;0.30;;
20814;SDS011;10568;48.176;16.316;2023-08-06T02:17:50;0.30;;;0.30;;
20814;SDS011;10568;48.176;16.316;2023-08-06T02:20:15;0.37;;;0.37;;
20814;SDS011;10568;48.176;16.316;2023-08-06T02:22:41;0.30;;;0.30;;
20814;SDS011;10568;48.176;16.316;2023-08-06T02:25:07;0.20;;;0.20;;
20814;SDS011;10568;48.176;16.316;2023-08-06T02:27:33;1.00;;;0.47;;
20814;SDS011;10568;48.176;16.316;2023-08-06T02:29:58;0.20;;;0.20;;
20814;SDS011;10568;48.176;16.316;2023-08-06T02:32:24;0.27;;;0.27;;
20814;SDS011;10568;48.176;16.316;2023-08-06T02:34:50;0.20;;;0.20;;
20814;SDS011;10568;48.176;16.316;2023-08-06T02:37:16;0.60;;;0.40;;
20814;SDS011;10568;48.176;16.316;2023-08-06T02:39:41;0.53;;;0.30;;
20814;SDS011;10568;48.176;16.316;2023-08-06T02:42:08;0.40;;;0.40;;
20814;SDS011;10568;48.176;16.316;2023-08-06T02:44:34;0.33;;;0.33;;
20814;SDS011;10568;48.176;16.316;2023-08-06T02:47:00;0.30;;;0.30;;
20814;SDS011;10568;48.176;16.316;2023-08-06T02:49:26;0.40;;;0.40;;
20814;SDS011;10568;48.176;16.316;2023-08-06T02:51:52;0.30;;;0.30;;
20814;SDS011;10568;48.176;16.316;2023-08-06T02:54:18;0.83;;;0.40;;
20814;SDS011;10568;48.176;16.316;2023-08-06T02:56:44;0.50;;;0.40;;
20814;SDS011;10568;48.176;16.316;2023-08-06T02:59:10;0.30;;;0.30;;
20814;SDS011;10568;48.176;16.316;2023-08-06T03:01:36;1.07;;;0.40;;
20814;SDS011;10568;48.176;16.316;2023-08-06T03:04:02;0.40;;;0.40;;
20814;SDS011;10568;48.176;16.316;2023-08-06T03:06:28;0.40;;;0.30;;
20814;SDS011;10568;48.176;16.316;2023-08-06T03:08:54;0.30;;;0.30;;
20814;SDS011;10568;48.176;16.316;2023-08-06T03:11:19;0.40;;;0.40;;
20814;SDS011;10568;48.176;16.316;2023-08-06T03:13:46;0.60;;;0.47;;
20814;SDS011;10568;48.176;16.316;2023-08-06T03:16:15;0.70;;;0.50;;
20814;SDS011;10568;48.176;16.316;2023-08-06T03:18:40;0.77;;;0.60;;
20814;SDS011;10568;48.176;16.316;2023-08-06T03:21:06;0.87;;;0.60;;
20814;SDS011;10568;48.176;16.316;2023-08-06T03:23:32;0.63;;;0.40;;
20814;SDS011;10568;48.176;16.316;2023-08-06T03:26:01;0.60;;;0.57;;
20814;SDS011;10568;48.176;16.316;2023-08-06T03:28:28;0.77;;;0.63;;
20814;SDS011;10568;48.176;16.316;2023-08-06T03:31:00;0.60;;;0.60;;
20814;SDS011;10568;48.176;16.316;2023-08-06T03:33:27;0.90;;;0.60;;
20814;SDS011;10568;48.176;16.316;2023-08-06T03:35:53;1.53;;;0.80;;
20814;SDS011;10568;48.176;16.316;2023-08-06T03:38:18;0.80;;;0.70;;
20814;SDS011;10568;48.176;16.316;2023-08-06T03:40:44;1.90;;;0.80;;
20814;SDS011;10568;48.176;16.316;2023-08-06T03:43:10;0.73;;;0.73;;
20814;SDS011;10568;48.176;16.316;2023-08-06T03:45:36;1.13;;;0.80;;
20814;SDS011;10568;48.176;16.316;2023-08-06T03:48:02;0.83;;;0.70;;
20814;SDS011;10568;48.176;16.316;2023-08-06T03:50:28;0.60;;;0.60;;
20814;SDS011;10568;48.176;16.316;2023-08-06T03:52:53;1.83;;;0.87;;
20814;SDS011;10568;48.176;16.316;2023-08-06T03:55:19;1.10;;;1.00;;
20814;SDS011;10568;48.176;16.316;2023-08-06T03:57:45;0.77;;;0.77;;
20814;SDS011;10568;48.176;16.316;2023-08-06T04:00:11;1.13;;;0.90;;
20814;SDS011;10568;48.176;16.316;2023-08-06T04:02:37;1.20;;;0.83;;
20814;SDS011;10568;48.176;16.316;2023-08-06T04:05:03;1.00;;;0.90;;
20814;SDS011;10568;48.176;16.316;2023-08-06T04:07:29;1.10;;;1.00;;
20814;SDS011;10568;48.176;16.316;2023-08-06T04:09:56;1.30;;;1.00;;
20814;SDS011;10568;48.176;16.316;2023-08-06T04:12:23;1.60;;;1.00;;
20814;SDS011;10568;48.176;16.316;2023-08-06T04:14:50;1.40;;;0.90;;
20814;SDS011;10568;48.176;16.316;2023-08-06T04:17:17;1.43;;;1.20;;
20814;SDS011;10568;48.176;16.316;2023-08-06T04:19:55;1.20;;;1.10;;
20814;SDS011;10568;48.176;16.316;2023-08-06T04:22:24;2.33;;;1.20;;
20814;SDS011;10568;48.176;16.316;2023-08-06T04:24:50;0.90;;;0.90;;
20814;SDS011;10568;48.176;16.316;2023-08-06T04:27:16;1.23;;;1.07;;
20814;SDS011;10568;48.176;16.316;2023-08-06T04:29:42;1.10;;;1.00;;
20814;SDS011;10568;48.176;16.316;2023-08-06T04:32:09;0.97;;;0.90;;
20814;SDS011;10568;48.176;16.316;2023-08-06T04:34:35;1.67;;;1.17;;
20814;SDS011;10568;48.176;16.316;2023-08-06T04:37:02;1.27;;;1.07;;
20814;SDS011;10568;48.176;16.316;2023-08-06T04:39:28;1.23;;;1.00;;
20814;SDS011;10568;48.176;16.316;2023-08-06T04:41:55;1.80;;;1.20;;
20814;SDS011;10568;48.176;16.316;2023-08-06T04:44:24;1.00;;;0.87;;
20814;SDS011;10568;48.176;16.316;2023-08-06T04:46:50;0.67;;;0.67;;
20814;SDS011;10568;48.176;16.316;2023-08-06T04:49:15;0.97;;;0.97;;
20814;SDS011;10568;48.176;16.316;2023-08-06T04:51:41;1.77;;;1.10;;
20814;SDS011;10568;48.176;16.316;2023-08-06T04:54:07;1.20;;;0.90;;
20814;SDS011;10568;48.176;16.316;2023-08-06T04:56:33;1.20;;;0.90;;
20814;SDS011;10568;48.176;16.316;2023-08-06T04:58:58;2.47;;;1.10;;
20814;SDS011;10568;48.176;16.316;2023-08-06T05:01:25;1.77;;;0.97;;
20814;SDS011;10568;48.176;16.316;2023-08-06T05:03:50;1.10;;;1.00;;
20814;SDS011;10568;48.176;16.316;2023-08-06T05:06:16;2.00;;;1.10;;
20814;SDS011;10568;48.176;16.316;2023-08-06T05:08:42;0.73;;;0.70;;
20814;SDS011;10568;48.176;16.316;2023-08-06T05:11:08;1.50;;;1.00;;
20814;SDS011;10568;48.176;16.316;2023-08-06T05:13:34;1.73;;;1.00;;
20814;SDS011;10568;48.176;16.316;2023-08-06T05:16:00;0.90;;;0.80;;
20814;SDS011;10568;48.176;16.316;2023-08-06T05:18:25;1.40;;;1.00;;
20814;SDS011;10568;48.176;16.316;2023-08-06T05:20:51;0.73;;;0.70;;
20814;SDS011;10568;48.176;16.316;2023-08-06T05:23:17;0.70;;;0.70;;
20814;SDS011;10568;48.176;16.316;2023-08-06T05:25:42;0.73;;;0.70;;
20814;SDS011;10568;48.176;16.316;2023-08-06T05:28:08;1.00;;;0.90;;
20814;SDS011;10568;48.176;16.316;2023-08-06T05:30:34;1.27;;;0.90;;
20814;SDS011;10568;48.176;16.316;2023-08-06T05:33:03;1.00;;;0.90;;
20814;SDS011;10568;48.176;16.316;2023-08-06T05:35:29;1.00;;;0.80;;
20814;SDS011;10568;48.176;16.316;2023-08-06T05:37:55;1.20;;;1.00;;
20814;SDS011;10568;48.176;16.316;2023-08-06T05:40:20;1.00;;;0.90;;
20814;SDS011;10568;48.176;16.316;2023-08-06T05:42:46;1.70;;;0.80;;
20814;SDS011;10568;48.176;16.316;2023-08-06T05:45:11;1.20;;;0.87;;
20814;SDS011;10568;48.176;16.316;2023-08-06T05:47:37;1.10;;;1.00;;
20814;SDS011;10568;48.176;16.316;2023-08-06T05:50:03;0.73;;;0.73;;
20814;SDS011;10568;48.176;16.316;2023-08-06T05:52:29;1.00;;;0.83;;
20814;SDS011;10568;48.176;16.316;2023-08-06T05:54:54;1.13;;;0.80;;
20814;SDS011;10568;48.176;16.316;2023-08-06T05:57:20;1.77;;;0.73;;
20814;SDS011;10568;48.176;16.316;2023-08-06T05:59:46;1.00;;;0.90;;
20814;SDS011;10568;48.176;16.316;2023-08-06T06:02:12;1.27;;;0.80;;
20814;SDS011;10568;48.176;16.316;2023-08-06T06:04:37;1.43;;;0.90;;
20814;SDS011;10568;48.176;16.316;2023-08-06T06:07:03;1.03;;;0.90;;
20814;SDS011;10568;48.176;16.316;2023-08-06T06:09:29;1.10;;;0.87;;
20814;SDS011;10568;48.176;16.316;2023-08-06T06:11:55;1.33;;;1.00;;
20814;SDS011;10568;48.176;16.316;2023-08-06T06:14:20;1.07;;;0.80;;
20814;SDS011;10568;48.176;16.316;2023-08-06T06:16:46;1.40;;;1.00;;
20814;SDS011;10568;48.176;16.316;2023-08-06T06:19:12;0.60;;;0.60;;
20814;SDS011;10568;48.176;16.316;2023-08-06T06:21:38;1.27;;;1.00;;
20814;SDS011;10568;48.176;16.316;2023-08-06T06:24:05;1.27;;;0.80;;
20814;SDS011;10568;48.176;16.316;2023-08-06T06:26:31;0.70;;;0.70;;
20814;SDS011;10568;48.176;16.316;2023-08-06T06:28:57;1.13;;;0.80;;
20814;SDS011;10568;48.176;16.316;2023-08-06T06:31:23;1.27;;;0.77;;
20814;SDS011;10568;48.176;16.316;2023-08-06T06:33:50;0.77;;;0.67;;
20814;SDS011;10568;48.176;16.316;2023-08-06T06:36:19;3.10;;;1.30;;
20814;SDS011;10568;48.176;16.316;2023-08-06T06:38:45;1.87;;;0.87;;
20814;SDS011;10568;48.176;16.316;2023-08-06T06:41:11;1.00;;;0.90;;
20814;SDS011;10568;48.176;16.316;2023-08-06T06:43:37;1.13;;;0.90;;
20814;SDS011;10568;48.176;16.316;2023-08-06T06:46:04;0.90;;;0.83;;
20814;SDS011;10568;48.176;16.316;2023-08-06T06:48:30;1.30;;;1.00;;
20814;SDS011;10568;48.176;16.316;2023-08-06T06:50:57;1.67;;;1.00;;
20814;SDS011;10568;48.176;16.316;2023-08-06T06:53:23;0.90;;;0.90;;
20814;SDS011;10568;48.176;16.316;2023-08-06T06:55:55;1.87;;;0.90;;
20814;SDS011;10568;48.176;16.316;2023-08-06T06:58:26;1.30;;;1.10;;
20814;SDS011;10568;48.176;16.316;2023-08-06T07:00:51;1.40;;;0.90;;
20814;SDS011;10568;48.176;16.316;2023-08-06T07:03:17;1.00;;;0.90;;
20814;SDS011;10568;48.176;16.316;2023-08-06T07:05:44;0.97;;;0.90;;
20814;SDS011;10568;48.176;16.316;2023-08-06T07:08:10;1.00;;;0.90;;
20814;SDS011;10568;48.176;16.316;2023-08-06T07:10:36;1.43;;;0.80;;
20814;SDS011;10568;48.176;16.316;2023-08-06T07:13:05;1.00;;;0.80;;
20814;SDS011;10568;48.176;16.316;2023-08-06T07:15:30;1.63;;;0.60;;
20814;SDS011;10568;48.176;16.316;2023-08-06T07:17:56;1.10;;;0.63;;
20814;SDS011;10568;48.176;16.316;2023-08-06T07:20:22;1.67;;;0.90;;
20814;SDS011;10568;48.176;16.316;2023-08-06T07:22:48;0.77;;;0.70;;
20814;SDS011;10568;48.176;16.316;2023-08-06T07:25:15;1.37;;;0.70;;
20814;SDS011;10568;48.176;16.316;2023-08-06T07:27:41;1.00;;;0.83;;
20814;SDS011;10568;48.176;16.316;2023-08-06T07:30:07;0.83;;;0.80;;
20814;SDS011;10568;48.176;16.316;2023-08-06T07:32:33;1.07;;;0.97;;
20814;SDS011;10568;48.176;16.316;2023-08-06T07:34:59;0.70;;;0.70;;
20814;SDS011;10568;48.176;16.316;2023-08-06T07:37:28;0.80;;;0.80;;
20814;SDS011;10568;48.176;16.316;2023-08-06T07:39:55;0.83;;;0.83;;
20814;SDS011;10568;48.176;16.316;2023-08-06T07:42:21;1.60;;;0.80;;
20814;SDS011;10568;48.176;16.316;2023-08-06T07:44:53;1.00;;;0.90;;
20814;SDS011;10568;48.176;16.316;2023-08-06T07:47:21;1.43;;;0.90;;
20814;SDS011;10568;48.176;16.316;2023-08-06T07:49:47;1.10;;;1.00;;
20814;SDS011;10568;48.176;16.316;2023-08-06T07:52:13;1.03;;;0.87;;
20814;SDS011;10568;48.176;16.316;2023-08-06T07:54:38;1.10;;;1.00;;
20814;SDS011;10568;48.176;16.316;2023-08-06T07:57:04;0.70;;;0.70;;
20814;SDS011;10568;48.176;16.316;2023-08-06T07:59:30;0.70;;;0.70;;
20814;SDS011;10568;48.176;16.316;2023-08-06T08:01:56;0.87;;;0.70;;
20814;SDS011;10568;48.176;16.316;2023-08-06T08:04:22;1.20;;;0.90;;
20814;SDS011;10568;48.176;16.316;2023-08-06T08:06:48;1.53;;;0.90;;
20814;SDS011;10568;48.176;16.316;2023-08-06T08:09:14;1.40;;;0.90;;
20814;SDS011;10568;48.176;16.316;2023-08-06T08:11:40;0.70;;;0.70;;
20814;SDS011;10568;48.176;16.316;2023-08-06T08:14:06;1.67;;;0.90;;
20814;SDS011;10568;48.176;16.316;2023-08-06T08:16:31;1.00;;;0.90;;
20814;SDS011;10568;48.176;16.316;2023-08-06T08:18:57;1.37;;;0.97;;
20814;SDS011;10568;48.176;16.316;2023-08-06T08:21:23;1.23;;;0.90;;
20814;SDS011;10568;48.176;16.316;2023-08-06T08:23:50;0.80;;;0.70;;
20814;SDS011;10568;48.176;16.316;2023-08-06T08:26:15;0.77;;;0.77;;
20814;SDS011;10568;48.176;16.316;2023-08-06T08:28:41;1.03;;;0.90;;
20814;SDS011;10568;48.176;16.316;2023-08-06T08:31:10;0.80;;;0.80;;
20814;SDS011;10568;48.176;16.316;2023-08-06T08:33:36;1.10;;;0.90;;
20814;SDS011;10568;48.176;16.316;2023-08-06T08:36:03;0.90;;;0.90;;
20814;SDS011;10568;48.176;16.316;2023-08-06T08:38:29;1.47;;;1.10;;
20814;SDS011;10568;48.176;16.316;2023-08-06T08:40:55;1.10;;;1.00;;
20814;SDS011;10568;48.176;16.316;2023-08-06T08:43:21;1.47;;;1.00;;
20814;SDS011;10568;48.176;16.316;2023-08-06T08:45:49;1.30;;;1.20;;
20814;SDS011;10568;48.176;16.316;2023-08-06T08:48:16;2.13;;;1.10;;
20814;SDS011;10568;48.176;16.316;2023-08-06T08:50:44;1.23;;;0.90;;
20814;SDS011;10568;48.176;16.316;2023-08-06T08:53:12;2.63;;;1.00;;
20814;SDS011;10568;48.176;16.316;2023-08-06T08:55:40;1.27;;;1.00;;
20814;SDS011;10568;48.176;16.316;2023-08-06T08:58:07;1.10;;;1.00;;
20814;SDS011;10568;48.176;16.316;2023-08-06T09:00:33;1.53;;;1.20;;
20814;SDS011;10568;48.176;16.316;2023-08-06T09:02:59;1.23;;;1.13;;
20814;SDS011;10568;48.176;16.316;2023-08-06T09:05:28;3.07;;;1.10;;
20814;SDS011;10568;48.176;16.316;2023-08-06T09:07:56;2.63;;;1.13;;
20814;SDS011;10568;48.176;16.316;2023-08-06T09:10:30;1.30;;;1.20;;
20814;SDS011;10568;48.176;16.316;2023-08-06T09:12:56;1.17;;;1.00;;
20814;SDS011;10568;48.176;16.316;2023-08-06T09:15:26;1.33;;;1.23;;
20814;SDS011;10568;48.176;16.316;2023-08-06T09:17:53;2.60;;;1.40;;
20814;SDS011;10568;48.176;16.316;2023-08-06T09:20:19;2.03;;;1.57;;
20814;SDS011;10568;48.176;16.316;2023-08-06T09:22:45;1.80;;;1.40;;
20814;SDS011;10568;48.176;16.316;2023-08-06T09:25:13;1.63;;;1.53;;
20814;SDS011;10568;48.176;16.316;2023-08-06T09:27:50;1.63;;;1.50;;
20814;SDS011;10568;48.176;16.316;2023-08-06T09:30:33;2.30;;;1.60;;
20814;SDS011;10568;48.176;16.316;2023-08-06T09:33:00;2.27;;;1.57;;
20814;SDS011;10568;48.176;16.316;2023-08-06T09:35:29;1.83;;;1.50;;
20814;SDS011;10568;48.176;16.316;2023-08-06T09:38:06;2.10;;;1.40;;
20814;SDS011;10568;48.176;16.316;2023-08-06T09:40:33;2.57;;;1.70;;
20814;SDS011;10568;48.176;16.316;2023-08-06T09:42:59;1.80;;;1.40;;
20814;SDS011;10568;48.176;16.316;2023-08-06T09:45:32;1.40;;;1.30;;
20814;SDS011;10568;48.176;16.316;2023-08-06T09:47:59;1.73;;;1.50;;
20814;SDS011;10568;48.176;16.316;2023-08-06T09:50:31;1.70;;;1.60;;
20814;SDS011;10568;48.176;16.316;2023-08-06T09:52:58;2.63;;;1.70;;
20814;SDS011;10568;48.176;16.316;2023-08-06T09:55:25;2.10;;;1.40;;
20814;SDS011;10568;48.176;16.316;2023-08-06T09:57:52;1.70;;;1.50;;
20814;SDS011;10568;48.176;16.316;2023-08-06T10:00:18;1.40;;;1.30;;
20814;SDS011;10568;48.176;16.316;2023-08-06T10:03:02;1.50;;;1.40;;
20814;SDS011;10568;48.176;16.316;2023-08-06T10:05:28;1.50;;;1.40;;
20814;SDS011;10568;48.176;16.316;2023-08-06T10:07:56;1.70;;;1.40;;
20814;SDS011;10568;48.176;16.316;2023-08-06T10:10:24;1.60;;;1.50;;
20814;SDS011;10568;48.176;16.316;2023-08-06T10:12:52;2.13;;;1.40;;
20814;SDS011;10568;48.176;16.316;2023-08-06T10:15:22;1.80;;;1.60;;
20814;SDS011;10568;48.176;16.316;2023-08-06T10:17:51;1.30;;;1.20;;
20814;SDS011;10568;48.176;16.316;2023-08-06T10:20:19;1.50;;;1.37;;
20814;SDS011;10568;48.176;16.316;2023-08-06T10:22:59;1.50;;;1.40;;
20814;SDS011;10568;48.176;16.316;2023-08-06T10:25:34;1.57;;;1.47;;
20814;SDS011;10568;48.176;16.316;2023-08-06T10:28:11;2.13;;;1.60;;
20814;SDS011;10568;48.176;16.316;2023-08-06T10:30:44;1.53;;;1.40;;
20814;SDS011;10568;48.176;16.316;2023-08-06T10:33:11;1.57;;;1.47;;
20814;SDS011;10568;48.176;16.316;2023-08-06T10:35:38;1.40;;;1.30;;
20814;SDS011;10568;48.176;16.316;2023-08-06T10:40:36;2.60;;;1.57;;
20814;SDS011;10568;48.176;16.316;2023-08-06T10:43:04;2.10;;;1.40;;
20814;SDS011;10568;48.176;16.316;2023-08-06T10:45:36;1.70;;;1.50;;
20814;SDS011;10568;48.176;16.316;2023-08-06T10:48:03;1.80;;;1.30;;
20814;SDS011;10568;48.176;16.316;2023-08-06T10:50:29;1.67;;;1.40;;
20814;SDS011;10568;48.176;16.316;2023-08-06T10:52:57;2.47;;;1.50;;
20814;SDS011;10568;48.176;16.316;2023-08-06T10:55:23;1.83;;;1.10;;
20814;SDS011;10568;48.176;16.316;2023-08-06T10:57:51;1.37;;;1.27;;
20814;SDS011;10568;48.176;16.316;2023-08-06T11:00:17;1.30;;;1.20;;
20814;SDS011;10568;48.176;16.316;2023-08-06T11:02:43;1.30;;;1.20;;
20814;SDS011;10568;48.176;16.316;2023-08-06T11:05:11;1.57;;;1.33;;
20814;SDS011;10568;48.176;16.316;2023-08-06T11:07:37;2.07;;;1.40;;
20814;SDS011;10568;48.176;16.316;2023-08-06T11:10:04;1.60;;;1.20;;
20814;SDS011;10568;48.176;16.316;2023-08-06T11:12:32;1.03;;;1.00;;
20814;SDS011;10568;48.176;16.316;2023-08-06T11:14:58;1.50;;;1.20;;
20814;SDS011;10568;48.176;16.316;2023-08-06T11:17:24;1.70;;;1.40;;
20814;SDS011;10568;48.176;16.316;2023-08-06T11:19:52;2.80;;;1.23;;
20814;SDS011;10568;48.176;16.316;2023-08-06T11:22:19;2.87;;;1.00;;
20814;SDS011;10568;48.176;16.316;2023-08-06T11:24:46;1.80;;;1.30;;
20814;SDS011;10568;48.176;16.316;2023-08-06T11:27:14;1.20;;;1.10;;
20814;SDS011;10568;48.176;16.316;2023-08-06T11:29:41;1.23;;;1.00;;
20814;SDS011;10568;48.176;16.316;2023-08-06T11:32:08;1.33;;;1.10;;
20814;SDS011;10568;48.176;16.316;2023-08-06T11:34:34;2.47;;;1.30;;
20814;SDS011;10568;48.176;16.316;2023-08-06T11:37:02;1.33;;;1.10;;
20814;SDS011;10568;48.176;16.316;2023-08-06T11:39:31;1.70;;;1.20;;
20814;SDS011;10568;48.176;16.316;2023-08-06T11:42:01;1.67;;;1.10;;
20814;SDS011;10568;48.176;16.316;2023-08-06T11:44:32;1.63;;;1.20;;
20814;SDS011;10568;48.176;16.316;2023-08-06T11:47:00;1.63;;;1.27;;
20814;SDS011;10568;48.176;16.316;2023-08-06T11:52:10;2.03;;;1.20;;
20814;SDS011;10568;48.176;16.316;2023-08-06T11:54:39;1.53;;;1.20;;
20814;SDS011;10568;48.176;16.316;2023-08-06T11:57:05;1.50;;;1.10;;
20814;SDS011;10568;48.176;16.316;2023-08-06T11:59:31;1.60;;;1.17;;
20814;SDS011;10568;48.176;16.316;2023-08-06T12:01:57;1.30;;;1.20;;
20814;SDS011;10568;48.176;16.316;2023-08-06T12:04:25;1.57;;;1.30;;
20814;SDS011;10568;48.176;16.316;2023-08-06T12:07:04;2.13;;;1.27;;
20814;SDS011;10568;48.176;16.316;2023-08-06T12:09:32;1.47;;;1.20;;
20814;SDS011;10568;48.176;16.316;2023-08-06T12:12:00;1.93;;;1.30;;
20814;SDS011;10568;48.176;16.316;2023-08-06T12:14:25;2.37;;;1.10;;
20814;SDS011;10568;48.176;16.316;2023-08-06T12:16:51;1.83;;;1.13;;
20814;SDS011;10568;48.176;16.316;2023-08-06T12:19:16;1.87;;;1.50;;
20814;SDS011;10568;48.176;16.316;2023-08-06T12:21:42;1.83;;;1.23;;
20814;SDS011;10568;48.176;16.316;2023-08-06T12:24:08;1.73;;;1.17;;
20814;SDS011;10568;48.176;16.316;2023-08-06T12:26:35;3.03;;;1.30;;
20814;SDS011;10568;48.176;16.316;2023-08-06T12:29:00;1.40;;;1.30;;
20814;SDS011;10568;48.176;16.316;2023-08-06T12:31:26;2.37;;;0.97;;
20814;SDS011;10568;48.176;16.316;2023-08-06T12:33:51;1.93;;;1.37;;
20814;SDS011;10568;48.176;16.316;2023-08-06T12:36:17;2.60;;;1.30;;
20814;SDS011;10568;48.176;16.316;2023-08-06T12:38:43;1.50;;;1.27;;
20814;SDS011;10568;48.176;16.316;2023-08-06T12:41:08;1.50;;;1.33;;
20814;SDS011;10568;48.176;16.316;2023-08-06T12:43:34;2.57;;;1.37;;
20814;SDS011;10568;48.176;16.316;2023-08-06T12:46:00;1.53;;;1.20;;
20814;SDS011;10568;48.176;16.316;2023-08-06T12:48:25;2.10;;;1.37;;
20814;SDS011;10568;48.176;16.316;2023-08-06T12:50:51;1.57;;;1.30;;
20814;SDS011;10568;48.176;16.316;2023-08-06T12:53:17;1.73;;;1.53;;
20814;SDS011;10568;48.176;16.316;2023-08-06T12:55:42;1.70;;;1.40;;
20814;SDS011;10568;48.176;16.316;2023-08-06T12:58:14;1.80;;;1.37;;
20814;SDS011;10568;48.176;16.316;2023-08-06T13:00:40;1.87;;;1.30;;
20814;SDS011;10568;48.176;16.316;2023-08-06T13:03:06;1.77;;;1.33;;
20814;SDS011;10568;48.176;16.316;2023-08-06T13:05:32;1.67;;;1.43;;
20814;SDS011;10568;48.176;16.316;2023-08-06T13:07:58;1.97;;;1.30;;
20814;SDS011;10568;48.176;16.316;2023-08-06T13:10:25;2.73;;;1.60;;
20814;SDS011;10568;48.176;16.316;2023-08-06T13:12:52;1.73;;;1.37;;
20814;SDS011;10568;48.176;16.316;2023-08-06T13:15:18;1.87;;;1.30;;
20814;SDS011;10568;48.176;16.316;2023-08-06T13:17:46;2.47;;;1.43;;
20814;SDS011;10568;48.176;16.316;2023-08-06T13:20:12;1.60;;;1.50;;
20814;SDS011;10568;48.176;16.316;2023-08-06T13:22:37;1.50;;;1.40;;
20814;SDS011;10568;48.176;16.316;2023-08-06T13:25:04;1.63;;;1.37;;
20814;SDS011;10568;48.176;16.316;2023-08-06T13:27:30;2.97;;;1.60;;
20814;SDS011;10568;48.176;16.316;2023-08-06T13:29:55;2.33;;;1.50;;
20814;SDS011;10568;48.176;16.316;2023-08-06T13:32:21;1.77;;;1.27;;
20814;SDS011;10568;48.176;16.316;2023-08-06T13:34:51;2.40;;;1.43;;
20814;SDS011;10568;48.176;16.316;2023-08-06T13:37:17;1.77;;;1.40;;
20814;SDS011;10568;48.176;16.316;2023-08-06T13:39:42;1.63;;;1.43;;
20814;SDS011;10568;48.176;16.316;2023-08-06T13:42:08;2.27;;;1.60;;
20814;SDS011;10568;48.176;16.316;2023-08-06T13:44:34;2.07;;;1.50;;
20814;SDS011;10568;48.176;16.316;2023-08-06T13:47:01;3.37;;;1.60;;
20814;SDS011;10568;48.176;16.316;2023-08-06T13:49:27;1.73;;;1.40;;
20814;SDS011;10568;48.176;16.316;2023-08-06T13:51:53;2.55;;;1.30;;
20814;SDS011;10568;48.176;16.316;2023-08-06T13:54:19;3.95;;;1.30;;
20814;SDS011;10568;48.176;16.316;2023-08-06T13:56:46;1.83;;;1.20;;
20814;SDS011;10568;48.176;16.316;2023-08-06T13:59:11;2.85;;;1.25;;
20814;SDS011;10568;48.176;16.316;2023-08-06T14:01:39;1.20;;;0.80;;
20814;SDS011;10568;48.176;16.316;2023-08-06T14:04:04;1.85;;;1.13;;
20814;SDS011;10568;48.176;16.316;2023-08-06T14:06:33;1.50;;;0.97;;
20814;SDS011;10568;48.176;16.316;2023-08-06T14:08:59;1.53;;;0.90;;
20814;SDS011;10568;48.176;16.316;2023-08-06T14:11:25;1.20;;;0.90;;
20814;SDS011;10568;48.176;16.316;2023-08-06T14:13:51;0.60;;;0.50;;
20814;SDS011;10568;48.176;16.316;2023-08-06T14:16:17;1.40;;;0.65;;
20814;SDS011;10568;48.176;16.316;2023-08-06T14:18:43;0.75;;;0.63;;
20814;SDS011;10568;48.176;16.316;2023-08-06T14:21:09;1.73;;;0.40;;
20814;SDS011;10568;48.176;16.316;2023-08-06T14:23:35;1.20;;;0.60;;
20814;SDS011;10568;48.176;16.316;2023-08-06T14:26:01;0.43;;;0.40;;
20814;SDS011;10568;48.176;16.316;2023-08-06T14:28:27;0.80;;;0.40;;
20814;SDS011;10568;48.176;16.316;2023-08-06T14:30:54;0.60;;;0.50;;
20814;SDS011;10568;48.176;16.316;2023-08-06T14:33:21;0.30;;;0.30;;
20814;SDS011;10568;48.176;16.316;2023-08-06T14:35:47;1.87;;;0.40;;
20814;SDS011;10568;48.176;16.316;2023-08-06T14:38:13;0.50;;;0.45;;
20814;SDS011;10568;48.176;16.316;2023-08-06T14:40:39;1.27;;;0.50;;
20814;SDS011;10568;48.176;16.316;2023-08-06T14:43:05;0.88;;;0.35;;